Time;durP1;ratioP1;P1;durP2;ratioP2;P2;SDS_P1;SDS_P2;PMS_P1;PMS_P2;Temp;Humidity;BMP_temperature;BMP_pressure;BME280_temperature;BME280_humidity;BME280_pressure;Samples;Min_cycle;Max_cycle;Signal;HPM_P1;HPM_P2
2023/05/27 00:02:24;;;;;;;6.67;2.27;;;11.40;99.90;;;;;;5051158;28;20036;-50
2023/05/27 00:04:50;;;;;;;9.00;2.53;;;11.30;99.90;;;;;;5051265;28;20027;-52
2023/05/27 00:07:16;;;;;;;7.90;2.07;;;11.30;99.90;;;;;;5051338;28;20039;-51
2023/05/27 00:09:42;;;;;;;7.43;2.17;;;11.20;99.90;;;;;;5051364;28;20456;-48
2023/05/27 00:12:07;;;;;;;8.90;1.93;;;11.20;99.90;;;;;;5051084;28;20075;-53
2023/05/27 00:14:33;;;;;;;7.23;2.00;;;11.20;99.90;;;;;;5051231;28;20068;-51
2023/05/27 00:17:01;;;;;;;5.43;1.90;;;11.10;99.90;;;;;;5051615;28;20104;-48
2023/05/27 00:19:29;;;;;;;8.60;2.47;;;11.10;99.90;;;;;;5051862;28;20079;-48
2023/05/27 00:21:55;;;;;;;8.87;3.20;;;11.00;99.90;;;;;;5051639;28;20037;-49
2023/05/27 00:24:21;;;;;;;6.30;2.23;;;11.00;99.90;;;;;;5051205;28;20037;-52
2023/05/27 00:26:47;;;;;;;17.73;2.73;;;10.90;99.90;;;;;;5052159;28;20033;-48
2023/05/27 00:29:13;;;;;;;8.03;1.90;;;11.00;99.90;;;;;;5033776;28;20025;-48
2023/05/27 00:31:39;;;;;;;5.33;2.17;;;10.90;99.90;;;;;;5034350;28;20036;-50
2023/05/27 00:34:05;;;;;;;5.83;2.73;;;11.00;99.90;;;;;;5037835;28;20040;-51
2023/05/27 00:36:33;;;;;;;10.33;2.73;;;11.00;99.90;;;;;;5055442;28;20025;-51
2023/05/27 00:39:00;;;;;;;8.88;2.40;;;11.00;99.90;;;;;;5054743;28;20446;-53
2023/05/27 00:41:27;;;;;;;6.37;1.97;;;10.90;99.90;;;;;;5054358;28;20029;-48
2023/05/27 00:43:53;;;;;;;7.27;2.30;;;10.90;99.90;;;;;;5054394;28;20414;-51
2023/05/27 00:46:19;;;;;;;9.07;2.23;;;10.90;99.90;;;;;;5054430;28;20024;-48
2023/05/27 00:48:46;;;;;;;8.83;2.17;;;10.90;99.90;;;;;;5054525;28;20025;-50
2023/05/27 00:51:12;;;;;;;9.33;2.37;;;10.90;99.90;;;;;;5036351;28;20037;-50
2023/05/27 00:53:43;;;;;;;11.17;2.40;;;10.80;99.90;;;;;;5053985;28;20029;-49
2023/05/27 00:56:10;;;;;;;8.90;2.20;;;10.80;99.90;;;;;;5054631;28;20048;-49
2023/05/27 00:58:37;;;;;;;8.03;2.17;;;10.80;99.90;;;;;;5054206;28;20600;-47
2023/05/27 01:01:07;;;;;;;6.03;2.10;;;10.80;99.90;;;;;;5054056;28;20029;-48
2023/05/27 01:03:34;;;;;;;9.87;2.30;;;10.70;99.90;;;;;;5054041;28;20029;-52
2023/05/27 01:06:25;;;;;;;8.47;2.47;;;10.60;99.90;;;;;;5036141;28;20025;-51
2023/05/27 01:09:25;;;;;;;6.23;2.10;;;10.50;99.90;;;;;;5054258;28;20025;-49
2023/05/27 01:12:01;;;;;;;4.37;1.70;;;10.50;99.90;;;;;;5035953;28;20117;-49
2023/05/27 01:14:30;;;;;;;8.77;2.07;;;10.50;99.90;;;;;;5035877;28;20032;-52
2023/05/27 01:17:00;;;;;;;7.00;2.03;;;10.40;99.90;;;;;;5036366;28;20119;-51
2023/05/27 01:19:33;;;;;;;6.50;1.80;;;10.40;99.90;;;;;;5036753;28;20028;-50
2023/05/27 01:22:01;;;;;;;6.80;2.20;;;10.40;99.90;;;;;;5036293;28;20039;-49
2023/05/27 01:24:27;;;;;;;8.67;2.20;;;10.30;99.90;;;;;;5053989;28;20075;-50
2023/05/27 01:26:56;;;;;;;7.37;2.10;;;10.30;99.90;;;;;;5054053;28;20112;-49
2023/05/27 01:29:22;;;;;;;11.47;2.30;;;10.30;99.90;;;;;;5035968;28;20108;-49
2023/05/27 01:31:57;;;;;;;10.90;2.77;;;10.20;99.90;;;;;;5035547;28;20029;-51
2023/05/27 01:34:31;;;;;;;9.47;2.47;;;10.20;99.90;;;;;;5035939;28;20037;-50
2023/05/27 01:37:02;;;;;;;8.43;2.50;;;10.10;99.90;;;;;;5036094;28;20040;-51
2023/05/27 01:39:28;;;;;;;8.27;2.37;;;10.00;99.90;;;;;;5054047;28;20074;-48
2023/05/27 01:41:55;;;;;;;9.83;2.17;;;10.00;99.90;;;;;;5035463;28;20033;-49
2023/05/27 01:44:22;;;;;;;7.03;2.70;;;10.00;99.90;;;;;;5052981;28;20087;-48
2023/05/27 01:46:48;;;;;;;5.93;2.33;;;10.00;99.90;;;;;;5053388;28;20108;-48
2023/05/27 01:49:14;;;;;;;7.17;2.10;;;10.00;99.90;;;;;;5035418;28;20472;-48
2023/05/27 01:51:39;;;;;;;7.67;1.97;;;10.00;99.90;;;;;;5035058;28;20123;-48
2023/05/27 01:54:06;;;;;;;8.67;2.30;;;10.00;99.90;;;;;;5018553;28;20071;-49
2023/05/27 01:56:32;;;;;;;9.17;1.93;;;9.90;99.90;;;;;;5035533;28;20378;-49
2023/05/27 01:58:57;;;;;;;10.30;2.30;;;9.90;99.90;;;;;;5035005;28;20167;-48
2023/05/27 02:01:24;;;;;;;7.13;2.10;;;9.90;99.90;;;;;;5034756;28;20033;-50
2023/05/27 02:03:51;;;;;;;12.60;2.77;;;9.80;99.90;;;;;;5034748;28;20029;-52
2023/05/27 02:06:17;;;;;;;8.90;2.17;;;9.80;99.90;;;;;;5034885;28;20421;-53
2023/05/27 02:08:42;;;;;;;11.87;2.30;;;9.80;99.90;;;;;;5053358;28;20580;-49
2023/05/27 02:11:09;;;;;;;8.90;2.37;;;9.70;99.90;;;;;;5034726;28;20060;-49
2023/05/27 02:13:36;;;;;;;6.03;2.50;;;9.70;99.90;;;;;;5034544;28;20033;-49
2023/05/27 02:16:02;;;;;;;10.33;3.37;;;9.70;99.90;;;;;;5035056;28;20148;-51
2023/05/27 02:18:28;;;;;;;9.37;2.50;;;9.70;99.90;;;;;;5052948;28;20453;-48
2023/05/27 02:20:53;;;;;;;7.40;2.73;;;9.70;99.90;;;;;;5034495;28;20029;-47
2023/05/27 02:23:19;;;;;;;7.73;2.60;;;9.70;99.90;;;;;;5034342;28;20028;-49
2023/05/27 02:25:45;;;;;;;7.70;2.50;;;9.60;99.90;;;;;;5034349;28;20025;-48
2023/05/27 02:28:10;;;;;;;13.07;2.77;;;9.60;99.90;;;;;;5052325;28;20028;-49
2023/05/27 02:30:37;;;;;;;11.93;2.83;;;9.50;99.90;;;;;;5034146;28;20049;-51
2023/05/27 02:33:03;;;;;;;8.87;2.77;;;9.50;99.90;;;;;;5052271;28;20029;-48
2023/05/27 02:35:29;;;;;;;8.77;2.30;;;9.50;99.90;;;;;;5052110;28;20033;-49
2023/05/27 02:37:55;;;;;;;8.53;2.57;;;9.50;99.90;;;;;;5034069;28;20108;-50
2023/05/27 02:40:28;;;;;;;9.53;3.10;;;9.50;99.90;;;;;;5033978;28;20481;-49
2023/05/27 02:42:58;;;;;;;13.03;2.90;;;9.40;99.90;;;;;;5034001;28;20036;-48
2023/05/27 02:45:25;;;;;;;6.28;2.22;;;9.40;99.90;;;;;;5033988;28;20025;-50
2023/05/27 02:47:51;;;;;;;9.63;3.13;;;9.30;99.90;;;;;;5034025;28;20033;-51
2023/05/27 02:50:16;;;;;;;4.87;2.07;;;9.40;99.90;;;;;;5051633;28;20040;-53
2023/05/27 02:52:43;;;;;;;10.30;2.77;;;9.30;99.90;;;;;;5033829;28;20029;-50
2023/05/27 02:55:08;;;;;;;8.27;2.97;;;9.30;99.90;;;;;;5033113;28;20032;-48
2023/05/27 02:57:35;;;;;;;13.17;3.50;;;9.30;99.90;;;;;;5052013;28;20029;-47
2023/05/27 03:00:01;;;;;;;9.80;3.10;;;9.30;99.90;;;;;;5051793;28;20021;-48
2023/05/27 03:02:27;;;;;;;8.37;2.40;;;9.20;99.90;;;;;;5051534;28;20021;-52
2023/05/27 03:04:55;;;;;;;9.13;2.80;;;9.20;99.90;;;;;;5051561;28;20024;-49
2023/05/27 03:07:21;;;;;;;8.20;2.47;;;9.20;99.90;;;;;;5051676;28;20408;-48
2023/05/27 03:09:47;;;;;;;9.83;2.93;;;9.20;99.90;;;;;;5033666;28;20025;-49
2023/05/27 03:12:12;;;;;;;8.43;2.70;;;9.10;99.90;;;;;;5033258;28;20455;-47
2023/05/27 03:14:38;;;;;;;9.27;3.10;;;9.10;99.90;;;;;;5051496;28;20036;-50
2023/05/27 03:17:04;;;;;;;9.87;3.10;;;9.10;99.90;;;;;;5033543;28;20048;-48
2023/05/27 03:19:30;;;;;;;8.73;2.63;;;9.10;99.90;;;;;;5051476;28;20457;-52
2023/05/27 03:21:56;;;;;;;6.77;2.60;;;9.10;99.90;;;;;;5033054;28;20031;-48
2023/05/27 03:24:24;;;;;;;7.67;2.30;;;9.10;99.90;;;;;;5033065;28;20036;-48
2023/05/27 03:26:51;;;;;;;7.57;2.57;;;9.00;99.90;;;;;;5033278;28;20473;-49
2023/05/27 03:29:18;;;;;;;9.83;3.03;;;9.00;99.90;;;;;;5033362;28;20087;-47
2023/05/27 03:31:43;;;;;;;9.07;2.57;;;9.00;99.90;;;;;;5032978;28;20025;-47
2023/05/27 03:34:13;;;;;;;6.73;2.57;;;8.90;99.90;;;;;;5032996;28;20041;-49
2023/05/27 03:36:43;;;;;;;10.10;2.50;;;8.90;99.90;;;;;;5051353;28;20083;-49
2023/05/27 03:39:09;;;;;;;7.47;2.70;;;9.00;99.90;;;;;;5033228;28;20033;-51
2023/05/27 03:41:38;;;;;;;9.40;2.67;;;9.00;99.90;;;;;;5032992;28;20140;-50
2023/05/27 03:44:04;;;;;;;9.40;2.63;;;9.00;99.90;;;;;;5032740;28;20548;-48
2023/05/27 03:46:32;;;;;;;10.03;3.07;;;8.90;99.90;;;;;;5033060;28;20119;-48
2023/05/27 03:48:58;;;;;;;13.13;3.47;;;8.90;99.90;;;;;;5033089;28;20116;-50
2023/05/27 03:51:24;;;;;;;12.93;3.03;;;8.90;99.90;;;;;;5050708;28;20442;-48
2023/05/27 03:53:50;;;;;;;9.80;2.97;;;8.90;99.90;;;;;;5032901;28;20029;-47
2023/05/27 03:56:16;;;;;;;8.73;3.10;;;9.00;99.90;;;;;;5050994;28;20535;-47
2023/05/27 03:58:42;;;;;;;9.77;2.30;;;8.90;99.90;;;;;;5051117;28;20044;-48
2023/05/27 04:01:08;;;;;;;9.03;2.50;;;9.00;99.90;;;;;;5050695;28;20059;-48
2023/05/27 04:03:34;;;;;;;9.00;3.03;;;9.00;99.90;;;;;;5032638;28;20509;-48
2023/05/27 04:06:00;;;;;;;10.67;2.87;;;9.00;99.90;;;;;;5052219;28;20025;-48
2023/05/27 04:08:26;;;;;;;9.80;2.57;;;9.10;99.90;;;;;;5036809;28;20028;-49
2023/05/27 04:10:53;;;;;;;11.93;2.70;;;9.10;99.90;;;;;;5036756;28;20033;-49
2023/05/27 04:13:18;;;;;;;9.80;2.87;;;9.00;99.90;;;;;;5036919;28;20036;-50
2023/05/27 04:15:44;;;;;;;12.13;2.67;;;9.10;99.90;;;;;;5054664;28;20051;-50
2023/05/27 04:18:10;;;;;;;10.20;3.00;;;9.00;99.90;;;;;;5054907;28;20032;-51
2023/05/27 04:20:41;;;;;;;11.27;2.80;;;9.00;99.90;;;;;;5036789;28;20039;-48
2023/05/27 04:23:08;;;;;;;10.13;2.50;;;9.00;99.90;;;;;;5036596;28;20029;-50
2023/05/27 04:25:34;;;;;;;11.13;2.97;;;9.00;99.90;;;;;;5036449;28;20032;-50
2023/05/27 04:28:06;;;;;;;;;;;9.10;99.90;;;;;;5037108;28;20032;-47
2023/05/27 04:30:35;;;;;;;10.93;3.23;;;9.10;99.90;;;;;;5053097;28;19909;-48
2023/05/27 04:33:03;;;;;;;7.57;2.23;;;9.20;99.90;;;;;;5036484;28;20037;-47
2023/05/27 04:35:31;;;;;;;9.87;2.70;;;9.20;99.90;;;;;;5036420;28;20033;-49
2023/05/27 04:38:01;;;;;;;11.27;2.67;;;9.20;99.90;;;;;;5036488;28;20028;-50
2023/05/27 04:40:34;;;;;;;13.50;3.17;;;9.10;99.90;;;;;;5036123;28;20043;-50
2023/05/27 04:43:19;;;;;;;6.17;2.47;;;9.20;99.90;;;;;;5036301;28;20052;-49
2023/05/27 04:45:46;;;;;;;11.47;3.23;;;9.20;99.90;;;;;;5036086;28;20051;-49
2023/05/27 04:48:12;;;;;;;11.27;2.87;;;9.30;99.90;;;;;;5036318;28;20039;-49
2023/05/27 04:50:39;;;;;;;11.50;2.73;;;9.30;99.90;;;;;;5019799;28;20029;-49
2023/05/27 04:53:04;;;;;;;11.70;3.73;;;9.30;99.90;;;;;;5035982;28;20481;-50
2023/05/27 04:55:30;;;;;;;7.37;2.80;;;9.30;99.90;;;;;;5035850;28;20127;-50
2023/05/27 04:57:56;;;;;;;9.67;2.97;;;9.30;99.90;;;;;;5035997;28;20060;-52
2023/05/27 05:00:35;;;;;;;9.73;3.00;;;9.30;99.90;;;;;;5053844;28;20512;-52
2023/05/27 05:03:03;;;;;;;13.47;3.53;;;9.40;99.90;;;;;;5035794;28;20040;-51
2023/05/27 05:05:33;;;;;;;10.13;3.40;;;9.40;99.90;;;;;;5035634;28;20120;-49
2023/05/27 05:08:01;;;;;;;8.50;3.20;;;9.40;99.90;;;;;;5035956;28;20025;-48
2023/05/27 05:10:29;;;;;;;16.83;3.60;;;9.40;99.90;;;;;;5053627;28;20025;-53
2023/05/27 05:12:55;;;;;;;8.00;3.33;;;9.50;99.90;;;;;;5035689;28;20048;-53
2023/05/27 05:15:21;;;;;;;10.87;3.23;;;9.50;99.90;;;;;;5035691;28;20116;-53
2023/05/27 05:17:51;;;;;;;11.00;3.03;;;9.60;99.90;;;;;;5035252;28;20025;-51
2023/05/27 05:20:17;;;;;;;7.03;3.20;;;9.70;99.90;;;;;;5035473;28;20070;-49
2023/05/27 05:22:43;;;;;;;9.47;3.10;;;9.70;99.90;;;;;;5035509;28;20104;-51
2023/05/27 05:25:10;;;;;;;9.90;2.97;;;9.90;99.90;;;;;;5035437;28;20088;-50
2023/05/27 05:27:41;;;;;;;8.03;2.97;;;10.00;99.90;;;;;;5035218;28;20365;-48
2023/05/27 05:30:08;;;;;;;12.23;3.23;;;10.00;99.90;;;;;;5052742;28;20028;-53
2023/05/27 05:32:33;;;;;;;9.17;2.60;;;10.10;99.90;;;;;;5034254;28;20060;-49
2023/05/27 05:34:59;;;;;;;11.50;2.70;;;10.10;99.90;;;;;;5067588;28;20099;-50
2023/05/27 05:37:26;;;;;;;9.77;3.50;;;10.20;99.90;;;;;;5033520;28;20024;-47
2023/05/27 05:39:54;;;;;;;11.87;3.07;;;10.30;99.90;;;;;;5052484;28;20428;-48
2023/05/27 05:42:21;;;;;;;7.85;2.83;;;10.40;99.90;;;;;;5031446;28;20033;-50
2023/05/27 05:44:47;;;;;;;8.80;2.53;;;10.40;99.90;;;;;;5034459;28;20370;-51
2023/05/27 05:47:13;;;;;;;11.60;3.17;;;10.50;99.90;;;;;;5068470;28;20036;-50
2023/05/27 05:49:39;;;;;;;13.80;3.27;;;10.60;99.90;;;;;;5035007;28;20025;-47
2023/05/27 05:52:07;;;;;;;6.13;2.97;;;10.60;99.90;;;;;;5034832;28;20052;-50
2023/05/27 05:54:33;;;;;;;12.53;3.30;;;10.60;99.90;;;;;;5068032;28;20258;-48
2023/05/27 05:57:01;;;;;;;12.53;3.63;;;10.70;99.90;;;;;;5034788;28;20386;-47
2023/05/27 05:59:26;;;;;;;8.77;2.97;;;10.80;99.90;;;;;;5052890;28;20381;-49
2023/05/27 06:01:52;;;;;;;8.53;2.50;;;10.90;99.90;;;;;;5034326;28;20115;-48
2023/05/27 06:04:20;;;;;;;9.67;3.13;;;11.10;99.90;;;;;;5033892;28;20445;-50
2023/05/27 06:06:46;;;;;;;10.67;3.33;;;11.10;99.90;;;;;;5052275;28;20513;-49
2023/05/27 06:09:15;;;;;;;9.68;3.08;;;11.20;99.90;;;;;;5052439;28;20414;-52
2023/05/27 06:11:41;;;;;;;9.77;3.43;;;11.30;99.90;;;;;;5034048;28;20059;-53
2023/05/27 06:14:07;;;;;;;11.93;3.43;;;11.40;99.90;;;;;;5034400;28;20125;-48
2023/05/27 06:16:35;;;;;;;8.17;3.40;;;11.60;99.90;;;;;;5034359;28;20029;-49
2023/05/27 06:19:02;;;;;;;6.30;2.47;;;11.60;99.90;;;;;;5052497;28;20108;-49
2023/05/27 06:21:30;;;;;;;9.23;3.23;;;11.80;99.90;;;;;;5033923;28;20035;-50
2023/05/27 06:24:34;;;;;;;11.63;3.73;;;12.00;99.90;;;;;;4969971;28;20503;-51
2023/05/27 06:27:18;;;;;;;11.20;3.60;;;12.00;99.90;;;;;;4954245;28;20022;-51
2023/05/27 06:29:44;;;;;;;9.07;3.17;;;12.20;99.90;;;;;;5003250;28;20036;-47
2023/05/27 06:32:12;;;;;;;8.23;2.77;;;12.20;99.90;;;;;;5033017;28;20482;-50
2023/05/27 06:34:37;;;;;;;11.00;3.27;;;12.30;99.90;;;;;;5033267;28;20033;-48
2023/05/27 06:37:03;;;;;;;10.50;3.63;;;12.40;99.90;;;;;;5033355;28;20113;-51
2023/05/27 06:39:29;;;;;;;7.10;3.30;;;12.50;99.90;;;;;;5055426;28;20032;-50
2023/05/27 06:41:55;;;;;;;8.67;3.73;;;12.70;99.90;;;;;;5051054;28;20090;-52
2023/05/27 06:44:37;;;;;;;10.50;3.38;;;12.90;99.90;;;;;;5033701;28;20351;-50
2023/05/27 06:47:12;;;;;;;7.40;3.38;;;13.10;99.90;;;;;;5033817;28;20095;-49
2023/05/27 06:49:38;;;;;;;9.30;3.83;;;13.10;99.90;;;;;;5033764;28;20106;-49
2023/05/27 06:52:06;;;;;;;13.20;3.63;;;13.20;99.90;;;;;;5033186;28;20120;-48
2023/05/27 06:54:40;;;;;;;10.40;2.90;;;13.30;99.90;;;;;;5033765;28;20392;-48
2023/05/27 06:57:25;;;;;;;10.07;3.13;;;13.30;99.90;;;;;;5050942;28;20095;-48
2023/05/27 06:59:59;;;;;;;13.63;4.13;;;13.30;99.90;;;;;;5050061;28;20055;-49
2023/05/27 07:02:28;;;;;;;13.88;3.25;;;13.50;99.90;;;;;;5049755;28;20029;-49
2023/05/27 07:04:54;;;;;;;10.40;3.38;;;13.50;99.90;;;;;;5049731;28;20523;-50
2023/05/27 07:07:20;;;;;;;11.13;3.35;;;13.60;99.90;;;;;;5049780;28;20497;-52
2023/05/27 07:09:46;;;;;;;11.75;4.15;;;13.60;99.90;;;;;;5050139;28;20021;-47
2023/05/27 07:12:12;;;;;;;7.45;2.90;;;13.70;99.90;;;;;;5047963;28;20021;-52
2023/05/27 07:14:48;;;;;;;13.25;3.38;;;13.80;99.90;;;;;;5033137;28;20032;-50
2023/05/27 07:17:15;;;;;;;9.43;3.22;;;14.00;99.90;;;;;;5048009;28;20043;-49
2023/05/27 07:19:43;;;;;;;9.15;2.97;;;14.10;99.90;;;;;;5010148;28;20458;-48
2023/05/27 07:22:14;;;;;;;11.35;3.85;;;14.20;99.90;;;;;;5032875;28;20032;-49
2023/05/27 07:24:41;;;;;;;10.38;2.85;;;14.30;99.90;;;;;;5033315;28;20039;-48
2023/05/27 07:30:38;;;;;;;11.60;3.60;;;14.50;99.90;;;;;;5051908;28;20032;-48
2023/05/27 07:33:06;;;;;;;11.45;3.78;;;14.60;99.90;;;;;;5017797;28;20450;-49
2023/05/27 07:35:31;;;;;;;8.50;3.25;;;14.70;99.90;;;;;;5032626;28;20081;-52
2023/05/27 07:37:57;;;;;;;8.73;2.88;;;14.90;99.90;;;;;;5033558;28;20033;-53
2023/05/27 07:40:23;;;;;;;13.60;3.67;;;15.10;99.90;;;;;;5050317;28;20665;-53
2023/05/27 07:42:49;;;;;;;10.68;3.30;;;15.30;99.90;;;;;;5050789;28;20458;-52
2023/05/27 07:45:15;;;;;;;8.02;2.65;;;15.40;99.90;;;;;;5033096;28;20082;-49
2023/05/27 07:47:41;;;;;;;9.75;2.95;;;15.40;99.90;;;;;;5016914;28;20067;-50
2023/05/27 07:50:08;;;;;;;10.43;3.47;;;15.50;99.90;;;;;;5032995;28;20519;-51
2023/05/27 07:52:36;;;;;;;13.48;3.45;;;15.50;99.90;;;;;;5050808;28;20037;-49
2023/05/27 07:55:12;;;;;;;7.65;3.03;;;15.50;99.90;;;;;;5045164;28;20528;-48
2023/05/27 07:57:38;;;;;;;11.60;3.75;;;15.50;99.90;;;;;;5049106;28;20196;-51
2023/05/27 08:00:06;;;;;;;9.68;3.78;;;15.70;99.90;;;;;;5048701;28;20036;-51
2023/05/27 08:02:51;;;;;;;10.63;3.03;;;15.80;99.90;;;;;;5050008;28;20033;-51
2023/05/27 08:05:18;;;;;;;11.88;3.30;;;15.90;99.90;;;;;;5048829;28;20387;-50
2023/05/27 08:07:59;;;;;;;10.13;3.13;;;15.80;99.90;;;;;;5048928;28;20036;-47
2023/05/27 08:11:03;;;;;;;8.98;3.30;;;15.80;99.90;;;;;;5050247;28;20389;-48
2023/05/27 08:13:51;;;;;;;10.73;3.25;;;15.80;99.90;;;;;;5048758;28;20033;-48
2023/05/27 08:16:40;;;;;;;9.35;3.28;;;15.80;99.90;;;;;;5042127;28;20409;-49
2023/05/27 08:19:32;;;;;;;7.82;2.80;;;15.80;99.90;;;;;;5047943;28;20061;-47
2023/05/27 08:22:08;;;;;;;10.18;3.38;;;15.90;99.90;;;;;;5048553;28;20033;-48
2023/05/27 08:24:54;;;;;;;11.38;3.10;;;16.00;99.90;;;;;;5049974;28;20079;-48
2023/05/27 08:27:57;;;;;;;9.65;3.58;;;16.10;99.90;;;;;;5048694;28;20029;-48
2023/05/27 08:30:33;;;;;;;11.20;3.50;;;16.10;99.90;;;;;;5048399;28;20025;-49
2023/05/27 08:33:11;;;;;;;11.48;3.55;;;16.30;99.90;;;;;;5048608;28;20025;-47
2023/05/27 08:35:36;;;;;;;9.57;3.28;;;16.30;99.90;;;;;;5049674;28;20029;-48
2023/05/27 08:38:03;;;;;;;9.68;3.90;;;16.30;99.90;;;;;;5049037;28;20389;-47
2023/05/27 08:40:33;;;;;;;10.15;3.67;;;16.40;99.90;;;;;;5048231;28;20037;-47
2023/05/27 08:43:00;;;;;;;14.23;4.05;;;16.50;99.90;;;;;;5048330;28;20124;-49
2023/05/27 08:45:30;;;;;;;9.88;3.55;;;16.60;99.90;;;;;;5048355;28;20036;-49
2023/05/27 08:47:57;;;;;;;8.00;2.70;;;16.60;99.90;;;;;;5048511;28;20060;-50
2023/05/27 08:50:30;;;;;;;8.52;2.45;;;16.70;99.90;;;;;;5048194;28;20036;-48
2023/05/27 08:52:56;;;;;;;6.88;2.50;;;16.80;99.90;;;;;;5050550;28;20490;-49
2023/05/27 08:55:26;;;;;;;7.68;2.92;;;16.80;99.90;;;;;;5051827;28;20074;-53
2023/05/27 08:57:58;;;;;;;8.35;3.10;;;17.00;99.90;;;;;;5052107;28;20021;-51
2023/05/27 09:00:26;;;;;;;12.00;3.10;;;17.10;99.90;;;;;;5051844;28;20025;-50
2023/05/27 09:02:59;;;;;;;10.10;3.22;;;17.10;99.90;;;;;;5051717;28;20075;-49
2023/05/27 09:05:29;;;;;;;8.68;2.70;;;17.10;99.90;;;;;;5051291;28;20401;-48
2023/05/27 09:07:55;;;;;;;10.27;2.88;;;17.20;99.90;;;;;;5053179;28;20025;-50
2023/05/27 09:10:21;;;;;;;11.65;3.22;;;17.30;99.90;;;;;;5053284;28;20079;-48
2023/05/27 09:12:47;;;;;;;6.40;2.58;;;17.40;99.90;;;;;;5052687;28;20456;-53
2023/05/27 09:15:13;;;;;;;7.72;2.22;;;17.20;99.90;;;;;;5052797;28;20078;-48
2023/05/27 09:17:43;;;;;;;9.48;2.75;;;17.30;99.90;;;;;;5053006;28;20036;-51
2023/05/27 09:20:10;;;;;;;10.82;2.63;;;17.40;99.90;;;;;;5052519;28;20036;-49
2023/05/27 09:22:37;;;;;;;9.68;2.70;;;17.40;99.90;;;;;;5052617;28;20029;-49
2023/05/27 09:25:03;;;;;;;7.55;2.60;;;17.60;99.90;;;;;;5052408;28;20508;-51
2023/05/27 09:27:32;;;;;;;9.65;2.67;;;17.70;99.90;;;;;;5052619;28;20070;-49
2023/05/27 09:30:07;;;;;;;6.28;2.78;;;17.80;99.90;;;;;;5052593;28;20116;-49
2023/05/27 09:32:33;;;;;;;7.45;2.58;;;18.00;99.80;;;;;;5052446;28;20056;-49
2023/05/27 09:35:00;;;;;;;7.10;2.45;;;18.00;99.30;;;;;;5052109;28;20291;-50
2023/05/27 09:37:34;;;;;;;9.48;2.80;;;18.10;99.90;;;;;;5052084;28;20086;-51
2023/05/27 09:40:12;;;;;;;8.02;2.70;;;18.20;99.00;;;;;;5052494;28;20025;-48
2023/05/27 09:42:41;;;;;;;8.70;2.40;;;18.30;99.60;;;;;;5052332;28;20039;-50
2023/05/27 09:45:12;;;;;;;6.68;2.72;;;18.30;99.20;;;;;;5051143;28;20440;-51
2023/05/27 09:47:46;;;;;;;6.90;2.40;;;18.40;99.30;;;;;;5052006;28;20044;-48
2023/05/27 09:50:14;;;;;;;8.20;2.33;;;18.50;98.00;;;;;;5051867;28;20358;-48
2023/05/27 09:52:41;;;;;;;6.32;1.95;;;18.50;97.90;;;;;;5051664;28;20020;-49
2023/05/27 09:55:08;;;;;;;11.07;2.90;;;18.60;97.70;;;;;;5052227;28;20044;-51
2023/05/27 09:57:35;;;;;;;6.38;2.33;;;18.70;97.10;;;;;;5052017;28;20408;-50
2023/05/27 10:00:11;;;;;;;5.45;2.60;;;18.80;97.20;;;;;;5052088;28;20486;-49
2023/05/27 10:02:41;;;;;;;8.32;2.28;;;18.90;96.00;;;;;;5051908;28;20083;-49
2023/05/27 10:05:08;;;;;;;7.10;2.53;;;19.10;96.90;;;;;;5051749;28;20040;-48
2023/05/27 10:07:39;;;;;;;12.25;3.22;;;19.20;96.20;;;;;;5051831;28;20164;-49
2023/05/27 10:10:16;;;;;;;9.32;3.40;;;19.20;96.40;;;;;;5051831;28;20025;-49
2023/05/27 10:12:47;;;;;;;10.43;3.17;;;19.20;96.00;;;;;;5051867;28;20481;-51
2023/05/27 10:15:31;;;;;;;9.95;2.97;;;19.20;96.70;;;;;;5051578;28;20119;-48
2023/05/27 10:18:09;;;;;;;7.78;3.47;;;19.30;96.10;;;;;;5051747;28;20056;-48
2023/05/27 10:20:38;;;;;;;9.43;2.47;;;19.30;95.50;;;;;;5051525;28;20049;-48
2023/05/27 10:23:25;;;;;;;7.90;2.35;;;19.30;95.00;;;;;;5051607;28;20060;-49
2023/05/27 10:26:11;;;;;;;8.90;3.05;;;19.30;94.60;;;;;;5051693;28;20036;-50
2023/05/27 10:28:40;;;;;;;10.98;2.78;;;19.40;94.90;;;;;;5051602;28;20389;-53
2023/05/27 10:31:16;;;;;;;8.32;2.72;;;19.40;95.40;;;;;;5033694;28;20045;-49
2023/05/27 10:33:47;;;;;;;8.80;2.80;;;19.50;95.50;;;;;;5051254;28;20507;-49
2023/05/27 10:36:31;;;;;;;6.63;2.30;;;19.60;95.70;;;;;;5051566;28;20025;-52
2023/05/27 10:39:20;;;;;;;12.18;3.08;;;19.50;94.10;;;;;;5051462;28;20481;-50
2023/05/27 10:41:50;;;;;;;7.50;2.80;;;19.60;94.30;;;;;;5050627;28;20106;-51
2023/05/27 10:44:39;;;;;;;10.65;2.63;;;19.60;94.00;;;;;;5051497;28;20201;-51
2023/05/27 10:47:15;;;;;;;9.40;2.33;;;19.70;92.70;;;;;;5051263;28;20037;-52
2023/05/27 10:49:46;;;;;;;11.85;6.38;;;19.60;91.60;;;;;;5051461;28;20033;-49
2023/05/27 10:52:16;;;;;;;8.15;2.90;;;19.80;92.90;;;;;;5051052;28;20033;-53
2023/05/27 10:54:43;;;;;;;10.90;2.53;;;19.80;92.90;;;;;;5051008;28;20040;-53
2023/05/27 10:57:09;;;;;;;9.73;2.85;;;19.80;92.30;;;;;;5051163;28;20116;-52
2023/05/27 10:59:58;;;;;;;6.65;2.28;;;19.90;93.20;;;;;;5051129;28;20044;-51
2023/05/27 11:02:24;;;;;;;7.07;2.22;;;19.70;91.80;;;;;;5050782;28;20493;-52
2023/05/27 11:04:50;;;;;;;8.57;2.83;;;19.70;92.90;;;;;;5050966;28;20033;-50
2023/05/27 11:07:21;;;;;;;7.97;2.35;;;19.90;92.30;;;;;;5051203;28;20090;-52
2023/05/27 11:09:51;;;;;;;7.15;1.88;;;20.00;91.40;;;;;;5050968;28;20473;-51
2023/05/27 11:12:18;;;;;;;8.55;2.42;;;20.00;90.70;;;;;;5050745;28;20036;-52
2023/05/27 11:14:52;;;;;;;7.25;2.58;;;20.00;91.10;;;;;;5050673;28;20083;-50
2023/05/27 11:17:19;;;;;;;6.95;2.30;;;19.90;91.00;;;;;;5050589;28;20112;-48
2023/05/27 11:19:45;;;;;;;5.15;1.95;;;20.00;91.70;;;;;;5051116;28;20033;-51
2023/05/27 11:22:13;;;;;;;8.32;2.22;;;20.00;91.10;;;;;;5050589;28;20025;-51
2023/05/27 11:24:39;;;;;;;6.85;2.60;;;20.10;91.30;;;;;;5050592;28;20033;-52
2023/05/27 11:27:10;;;;;;;7.07;2.80;;;20.10;91.00;;;;;;5050880;28;20033;-50
2023/05/27 11:29:39;;;;;;;8.55;2.50;;;20.20;90.20;;;;;;5051254;28;20122;-52
2023/05/27 11:32:06;;;;;;;9.07;2.30;;;20.20;90.60;;;;;;5050315;28;20029;-49
2023/05/27 11:34:35;;;;;;;6.78;2.00;;;20.30;90.40;;;;;;5050383;28;20059;-53
2023/05/27 11:37:05;;;;;;;6.55;2.22;;;20.40;88.50;;;;;;5050416;28;20029;-51
2023/05/27 11:39:32;;;;;;;6.72;2.75;;;20.50;86.30;;;;;;5050635;28;20029;-53
2023/05/27 11:41:58;;;;;;;7.90;2.53;;;20.70;88.00;;;;;;5050320;28;20033;-51
2023/05/27 11:44:25;;;;;;;9.98;2.80;;;20.80;87.70;;;;;;5050634;28;20036;-53
2023/05/27 11:46:57;;;;;;;7.85;3.00;;;20.80;83.60;;;;;;5050438;28;20106;-53
2023/05/27 11:49:23;;;;;;;7.68;2.47;;;20.80;84.30;;;;;;5050455;28;20040;-54
2023/05/27 11:51:50;;;;;;;7.35;2.28;;;20.80;83.50;;;;;;5050185;28;20289;-51
2023/05/27 11:54:23;;;;;;;8.93;2.60;;;20.70;82.80;;;;;;5050224;28;20090;-53
2023/05/27 11:56:50;;;;;;;7.32;2.33;;;20.70;83.20;;;;;;5051225;28;20124;-53
2023/05/27 11:59:16;;;;;;;6.65;2.13;;;20.70;85.30;;;;;;5050664;28;20118;-52
2023/05/27 12:01:42;;;;;;;6.57;2.33;;;20.80;83.00;;;;;;5049979;28;20047;-51
2023/05/27 12:04:08;;;;;;;7.38;2.20;;;20.80;82.50;;;;;;5050171;28;20069;-52
2023/05/27 12:06:36;;;;;;;4.72;2.05;;;20.80;84.30;;;;;;5050650;28;20094;-51
2023/05/27 12:09:06;;;;;;;7.03;2.42;;;20.90;81.00;;;;;;5050704;28;20101;-52
2023/05/27 12:11:33;;;;;;;8.63;2.33;;;21.00;81.20;;;;;;5050748;28;20037;-51
2023/05/27 12:13:58;;;;;;;5.60;2.22;;;21.10;77.90;;;;;;5050659;28;20062;-52
2023/05/27 12:16:25;;;;;;;7.65;1.83;;;21.10;76.50;;;;;;5051161;28;20112;-50
2023/05/27 12:18:51;;;;;;;5.88;2.20;;;21.20;79.10;;;;;;5051212;28;20029;-52
2023/05/27 12:21:17;;;;;;;8.70;2.15;;;21.10;78.10;;;;;;5051274;28;20021;-51
2023/05/27 12:23:43;;;;;;;6.43;1.98;;;21.10;78.70;;;;;;5052492;28;20033;-47
2023/05/27 12:26:12;;;;;;;5.82;1.90;;;21.20;81.40;;;;;;5052398;28;20096;-49
2023/05/27 12:28:37;;;;;;;;;;;21.30;77.40;;;;;;5054578;28;20833;-49
2023/05/27 12:31:04;;;;;;;5.15;2.20;;;21.40;75.80;;;;;;5055554;28;19908;-53
2023/05/27 12:33:30;;;;;;;4.90;1.70;;;21.60;69.90;;;;;;5055718;28;20033;-50
2023/05/27 12:35:56;;;;;;;8.40;2.42;;;21.50;71.20;;;;;;5055269;28;20128;-52
2023/05/27 12:38:22;;;;;;;6.22;2.00;;;21.70;68.70;;;;;;5055971;28;20029;-53
2023/05/27 12:40:48;;;;;;;9.57;2.55;;;21.90;68.50;;;;;;5054956;28;20021;-48
2023/05/27 12:43:14;;;;;;;5.03;1.98;;;21.80;70.10;;;;;;5055482;28;20115;-51
2023/05/27 12:45:40;;;;;;;6.38;2.50;;;21.70;72.10;;;;;;5054315;28;20025;-53
2023/05/27 12:48:06;;;;;;;8.65;2.55;;;21.70;72.50;;;;;;5054085;28;20067;-47
2023/05/27 12:50:33;;;;;;;10.27;2.72;;;21.60;73.50;;;;;;5053969;28;20131;-53
2023/05/27 12:52:59;;;;;;;7.13;2.45;;;21.50;73.20;;;;;;5054433;28;20032;-49
2023/05/27 12:55:25;;;;;;;6.88;1.73;;;21.60;72.60;;;;;;5036419;28;20643;-52
2023/05/27 12:57:52;;;;;;;5.22;2.30;;;21.70;72.50;;;;;;5038153;28;20106;-48
2023/05/27 13:00:19;;;;;;;6.82;2.55;;;21.70;74.00;;;;;;5055788;28;20052;-51
2023/05/27 13:02:46;;;;;;;7.13;2.30;;;21.90;71.10;;;;;;5037106;28;20029;-52